Terminal Aerodrome Forecast
Issued by NWS

Home | Current Version | Previous Version | Text Only | Print | Product List | Glossary On
Versions: 1 2 3 4 5 6 7 8 9 10 11 12 13 14 15
033
FTUS46 KMTR 101720
TAFSTS
TAF
KSTS 101720Z 1018/1118 00000KT P6SM SCT200
     FM101900 VRB03KT P6SM SCT200
     FM102300 16004KT P6SM SCT200
     FM110400 00000KT P6SM SCT200
     FM111000 00000KT 2SM BR FEW002 SCT200
     FM111600 VRB02KT P6SM FEW200=

USA.gov is the U.S. government's official web portal to all federal, state and local government web resources and services.